createdAt,value
2018-12-10T00:02:12.873Z,100.00
2018-12-10T00:04:42.042Z,100.00
2018-12-10T00:07:11.149Z,100.00
2018-12-10T00:09:40.410Z,100.00
2018-12-10T00:12:09.560Z,100.00
2018-12-10T00:14:38.753Z,100.00
2018-12-10T00:17:07.924Z,100.00
2018-12-10T00:19:37.067Z,100.00
2018-12-10T00:22:06.169Z,100.00
2018-12-10T00:24:35.280Z,100.00
2018-12-10T00:27:04.420Z,100.00
2018-12-10T00:29:33.585Z,100.00
2018-12-10T00:32:02.711Z,100.00
2018-12-10T00:34:31.833Z,100.00
2018-12-10T00:37:01.136Z,100.00
2018-12-10T00:39:30.406Z,100.00
2018-12-10T00:41:59.524Z,100.00
2018-12-10T00:44:28.653Z,100.00
2018-12-10T00:46:57.784Z,100.00
2018-12-10T00:49:27.018Z,100.00
2018-12-10T00:51:56.241Z,100.00
2018-12-10T00:54:25.409Z,100.00
2018-12-10T00:56:54.507Z,100.00
2018-12-10T00:59:23.651Z,100.00
2018-12-10T01:01:52.800Z,100.00
2018-12-10T01:04:21.958Z,100.00
2018-12-10T01:06:51.090Z,100.00
2018-12-10T01:09:20.242Z,100.00
2018-12-10T01:11:49.365Z,100.00
2018-12-10T01:14:18.545Z,100.00
2018-12-10T01:16:47.664Z,100.00
2018-12-10T01:19:16.781Z,100.00
2018-12-10T01:21:45.887Z,100.00
2018-12-10T01:24:15.004Z,100.00
2018-12-10T01:26:44.149Z,100.00
2018-12-10T01:29:13.259Z,100.00
2018-12-10T01:31:42.408Z,100.00
2018-12-10T01:34:11.556Z,100.00
2018-12-10T01:36:40.682Z,100.00
2018-12-10T01:39:09.820Z,100.00
2018-12-10T01:41:38.961Z,100.00
2018-12-10T01:44:08.134Z,100.00
2018-12-10T01:46:37.259Z,100.00
2018-12-10T01:49:06.397Z,100.00
2018-12-10T01:51:35.531Z,100.00
2018-12-10T01:54:04.671Z,100.00
2018-12-10T01:56:33.794Z,100.00
2018-12-10T01:59:02.919Z,100.00
2018-12-10T02:01:32.045Z,100.00
2018-12-10T02:04:01.153Z,100.00
2018-12-10T02:06:30.290Z,100.00
2018-12-10T02:08:59.433Z,100.00
2018-12-10T02:11:28.566Z,100.00
2018-12-10T02:13:57.712Z,100.00
2018-12-10T02:16:26.968Z,100.00
2018-12-10T02:18:56.138Z,100.00
2018-12-10T02:21:25.277Z,100.00
2018-12-10T02:23:54.401Z,100.00
2018-12-10T02:26:23.573Z,100.00
2018-12-10T02:29:23.342Z,100.00
2018-12-10T02:31:52.481Z,100.00
2018-12-10T02:34:21.598Z,100.00
2018-12-10T02:36:50.737Z,100.00
2018-12-10T02:39:19.839Z,100.00
2018-12-10T02:41:48.984Z,100.00
2018-12-10T02:44:18.188Z,100.00
2018-12-10T02:46:47.325Z,100.00
2018-12-10T02:49:16.493Z,100.00
2018-12-10T02:51:45.638Z,100.00
2018-12-10T02:54:14.790Z,100.00
2018-12-10T02:56:43.928Z,100.00
2018-12-10T02:59:13.058Z,100.00
2018-12-10T03:01:42.185Z,100.00
2018-12-10T03:04:11.311Z,100.00
2018-12-10T03:06:40.439Z,100.00
2018-12-10T03:09:09.642Z,100.00
2018-12-10T03:11:38.774Z,100.00
2018-12-10T03:14:07.888Z,100.00
2018-12-10T03:16:37.023Z,100.00
2018-12-10T03:19:37.180Z,100.00
2018-12-10T03:22:06.358Z,100.00
2018-12-10T03:24:35.492Z,100.00
2018-12-10T03:27:04.621Z,100.00
2018-12-10T03:29:33.745Z,100.00
2018-12-10T03:32:03.002Z,100.00
2018-12-10T03:34:32.227Z,100.00
2018-12-10T03:37:01.372Z,100.00
2018-12-10T03:42:05.926Z,100.00
2018-12-10T03:44:35.053Z,100.00
2018-12-10T03:47:04.756Z,100.00
2018-12-10T03:49:33.879Z,100.00
2018-12-10T03:52:03.054Z,100.00
2018-12-10T03:54:32.189Z,100.00
2018-12-10T03:57:01.309Z,100.00
2018-12-10T03:59:30.421Z,100.00
2018-12-10T04:01:59.573Z,100.00
2018-12-10T04:04:28.702Z,100.00
2018-12-10T04:06:57.838Z,100.00
2018-12-10T04:09:27.004Z,100.00
2018-12-10T04:11:56.199Z,100.00
2018-12-10T04:14:25.311Z,100.00
2018-12-10T04:16:54.516Z,100.00
2018-12-10T04:19:23.683Z,100.00
2018-12-10T04:21:52.848Z,100.00
2018-12-10T04:24:21.965Z,100.00
2018-12-10T04:26:51.117Z,100.00
2018-12-10T04:29:20.234Z,100.00
2018-12-10T04:31:49.403Z,100.00
2018-12-10T04:34:18.529Z,100.00
2018-12-10T04:36:47.688Z,100.00
2018-12-10T04:39:16.830Z,100.00
2018-12-10T04:41:45.985Z,100.00
2018-12-10T04:44:15.121Z,100.00
2018-12-10T04:46:44.280Z,100.00
2018-12-10T04:49:13.412Z,100.00
2018-12-10T04:51:42.517Z,100.00
2018-12-10T04:54:11.650Z,100.00
2018-12-10T05:00:13.066Z,100.00
2018-12-10T05:02:42.228Z,100.00
2018-12-10T05:05:11.389Z,100.00
2018-12-10T05:07:40.513Z,100.00
2018-12-10T05:10:09.613Z,100.00
2018-12-10T05:12:38.742Z,100.00
2018-12-10T05:15:07.876Z,100.00
2018-12-10T05:17:37.045Z,100.00
2018-12-10T05:20:06.337Z,100.00
2018-12-10T05:22:35.496Z,100.00
2018-12-10T05:25:04.634Z,100.00
2018-12-10T05:27:33.809Z,100.00
2018-12-10T05:30:02.962Z,100.00
2018-12-10T05:32:32.136Z,100.00
2018-12-10T05:35:01.277Z,100.00
2018-12-10T05:37:30.437Z,100.00
2018-12-10T05:39:59.589Z,100.00
2018-12-10T05:42:28.697Z,100.00
2018-12-10T05:44:57.826Z,100.00
2018-12-10T05:47:26.939Z,100.00
2018-12-10T05:49:55.589Z,100.00
2018-12-10T05:52:24.634Z,100.00
2018-12-10T05:54:53.672Z,100.00
2018-12-10T05:57:22.710Z,100.00
2018-12-10T05:59:51.738Z,100.00
2018-12-10T06:02:20.767Z,100.00
2018-12-10T06:04:49.817Z,100.00
2018-12-10T06:07:18.853Z,100.00
2018-12-10T06:09:47.865Z,100.00
2018-12-10T06:12:16.898Z,100.00
2018-12-10T06:14:45.912Z,100.00
2018-12-10T06:17:14.922Z,100.00
2018-12-10T06:19:43.944Z,100.00
2018-12-10T06:22:12.956Z,100.00
2018-12-10T06:24:41.985Z,100.00
2018-12-10T06:27:11.060Z,100.00
2018-12-10T06:29:40.072Z,100.00
2018-12-10T06:32:09.149Z,100.00
2018-12-10T06:34:38.169Z,100.00
2018-12-10T06:37:07.520Z,100.00
2018-12-10T06:39:36.537Z,100.00
2018-12-10T06:42:05.565Z,100.00
2018-12-10T06:44:34.841Z,100.00
2018-12-10T06:47:03.860Z,100.00
2018-12-10T06:49:32.869Z,100.00
2018-12-10T06:52:01.870Z,100.00
2018-12-10T06:54:30.889Z,100.00
2018-12-10T06:57:00.007Z,100.00
2018-12-10T06:59:29.065Z,100.00
2018-12-10T07:01:58.061Z,100.00
2018-12-10T07:04:27.083Z,100.00
2018-12-10T07:06:56.113Z,100.00
2018-12-10T07:09:25.133Z,100.00
2018-12-10T07:11:54.166Z,100.00
2018-12-10T07:14:23.364Z,100.00
2018-12-10T07:16:54.467Z,100.00
2018-12-10T07:19:23.500Z,100.00
2018-12-10T07:21:52.609Z,100.00
2018-12-10T07:24:21.591Z,100.00
2018-12-10T07:26:50.712Z,100.00
2018-12-10T07:29:19.738Z,100.00
2018-12-10T07:31:48.751Z,100.00
2018-12-10T07:34:17.745Z,100.00
2018-12-10T07:36:46.740Z,100.00
2018-12-10T07:39:15.741Z,100.00
2018-12-10T07:41:44.745Z,100.00
2018-12-10T07:44:13.935Z,100.00
2018-12-10T07:46:42.975Z,100.00
2018-12-10T07:49:11.988Z,100.00
2018-12-10T07:51:41.025Z,100.00
2018-12-10T07:54:10.070Z,100.00
2018-12-10T07:56:39.105Z,100.00
2018-12-10T07:59:08.108Z,100.00
2018-12-10T08:01:37.137Z,100.00
2018-12-10T08:04:06.200Z,100.00
2018-12-10T08:06:35.225Z,100.00
2018-12-10T08:09:05.269Z,100.00
2018-12-10T08:11:34.285Z,100.00
2018-12-10T08:14:03.652Z,100.00
2018-12-10T08:16:32.847Z,100.00
2018-12-10T08:19:01.865Z,100.00
2018-12-10T08:21:30.850Z,100.00
2018-12-10T08:23:59.849Z,100.00
2018-12-10T08:26:28.841Z,100.00
2018-12-10T08:29:03.879Z,100.00
2018-12-10T08:31:28.918Z,100.00
2018-12-10T08:33:57.941Z,100.00
2018-12-10T08:36:26.954Z,100.00
2018-12-10T08:38:56.014Z,100.00
2018-12-10T08:41:25.041Z,100.00
2018-12-10T08:43:54.169Z,100.00
2018-12-10T08:46:23.316Z,100.00
2018-12-10T08:48:52.432Z,100.00
2018-12-10T08:51:21.561Z,100.00
2018-12-10T08:53:50.666Z,100.00
2018-12-10T08:56:19.810Z,100.00
2018-12-10T08:58:48.942Z,100.00
2018-12-10T09:01:18.052Z,100.00
2018-12-10T09:03:47.194Z,100.00
2018-12-10T09:06:16.314Z,100.00
2018-12-10T09:08:45.529Z,100.00
2018-12-10T09:11:14.669Z,100.00
2018-12-10T09:13:43.769Z,100.00
2018-12-10T09:16:12.906Z,100.00
2018-12-10T09:18:42.023Z,100.00
2018-12-10T09:21:11.145Z,100.00
2018-12-10T09:23:40.281Z,100.00
2018-12-10T09:26:10.046Z,100.00
2018-12-10T09:28:40.270Z,100.00
2018-12-10T09:31:09.372Z,99.44
2018-12-10T09:33:38.490Z,97.03
2018-12-10T09:36:07.610Z,96.46
2018-12-10T09:38:36.728Z,98.19
2018-12-10T09:41:05.840Z,99.09
2018-12-10T09:43:34.950Z,99.00
2018-12-10T09:46:04.090Z,99.66
2018-12-10T09:48:33.223Z,99.92
2018-12-10T09:51:02.341Z,99.39
2018-12-10T09:53:31.457Z,99.55
2018-12-10T09:58:37.173Z,96.02
2018-12-10T10:01:06.300Z,96.91
2018-12-10T10:04:06.069Z,98.66
2018-12-10T10:06:35.141Z,96.91
2018-12-10T10:09:05.337Z,94.51
2018-12-10T10:11:34.456Z,93.12
2018-12-10T10:14:03.574Z,95.09
2018-12-10T10:16:32.703Z,95.31
2018-12-10T10:19:01.812Z,91.95
2018-12-10T10:21:30.898Z,96.59
2018-12-10T10:24:00.006Z,93.15
2018-12-10T10:26:29.097Z,90.16
2018-12-10T10:28:58.233Z,93.65
2018-12-10T10:31:27.317Z,90.16
2018-12-10T10:33:56.425Z,87.98
2018-12-10T10:36:25.525Z,85.75
2018-12-10T10:38:54.628Z,83.00
2018-12-10T10:41:31.127Z,80.80
2018-12-10T10:43:54.877Z,78.66
2018-12-10T10:46:23.987Z,75.80
2018-12-10T10:48:53.097Z,71.91
2018-12-10T10:51:22.217Z,67.23
2018-12-10T10:53:51.305Z,67.21
2018-12-10T10:56:20.430Z,62.46
2018-12-10T10:58:49.561Z,62.00
2018-12-10T11:01:26.713Z,60.17
2018-12-10T11:03:55.817Z,60.00
2018-12-10T11:06:24.952Z,62.06
2018-12-10T11:08:54.048Z,64.11
2018-12-10T11:11:23.139Z,65.73
2018-12-10T11:13:52.261Z,66.38
2018-12-10T11:16:21.380Z,68.49
2018-12-10T11:18:50.533Z,68.93
2018-12-10T11:21:19.617Z,69.79
2018-12-10T11:23:48.728Z,71.84
2018-12-10T11:26:17.837Z,73.95
2018-12-10T11:28:46.930Z,75.30
2018-12-10T11:31:17.275Z,77.81
2018-12-10T11:33:47.454Z,79.00
2018-12-10T11:36:16.832Z,80.25
2018-12-10T11:38:45.901Z,82.43
2018-12-10T11:41:15.020Z,83.24
2018-12-10T11:43:44.120Z,85.22
2018-12-10T11:46:13.253Z,85.78
2018-12-10T11:48:42.377Z,86.40
2018-12-10T11:51:11.583Z,86.78
2018-12-10T11:53:40.676Z,87.42
2018-12-10T11:56:09.781Z,87.85
2018-12-10T11:58:38.873Z,88.21
2018-12-10T12:01:07.986Z,87.78
2018-12-10T12:03:37.124Z,88.32
2018-12-10T12:06:06.262Z,87.85
2018-12-10T12:08:35.414Z,88.33
2018-12-10T12:11:04.518Z,89.51
2018-12-10T12:13:33.609Z,89.63
2018-12-10T12:16:02.724Z,90.01
2018-12-10T12:18:31.811Z,89.76
2018-12-10T12:21:00.880Z,89.84
2018-12-10T12:23:29.964Z,89.39
2018-12-10T12:25:59.123Z,89.23
2018-12-10T12:28:28.233Z,87.97
2018-12-10T12:30:57.327Z,88.87
2018-12-10T12:33:26.452Z,90.05
2018-12-10T12:35:55.573Z,90.55
2018-12-10T12:38:24.678Z,89.97
2018-12-10T12:40:53.785Z,90.65
2018-12-10T12:43:22.890Z,90.06
2018-12-10T12:45:52.008Z,90.19
2018-12-10T12:48:21.120Z,90.08
2018-12-10T12:50:50.324Z,89.69
2018-12-10T12:53:19.415Z,89.03
2018-12-10T12:55:48.541Z,89.50
2018-12-10T12:58:17.663Z,89.82
2018-12-10T13:00:46.771Z,89.88
2018-12-10T13:03:15.945Z,90.68
2018-12-10T13:05:45.135Z,91.40
2018-12-10T13:08:14.245Z,91.43
2018-12-10T13:10:43.379Z,91.93
2018-12-10T13:13:12.478Z,91.97
2018-12-10T13:15:41.624Z,92.83
2018-12-10T13:18:10.723Z,92.72
2018-12-10T13:20:39.830Z,92.49
2018-12-10T13:23:08.934Z,92.43
2018-12-10T13:25:38.054Z,92.64
2018-12-10T13:28:07.145Z,92.69
2018-12-10T13:30:36.268Z,93.92
2018-12-10T13:33:05.485Z,94.47
2018-12-10T13:38:06.757Z,95.29
2018-12-10T13:40:34.812Z,95.27
2018-12-10T13:43:03.933Z,95.29
2018-12-10T13:45:33.039Z,95.59
2018-12-10T13:48:02.147Z,95.79
2018-12-10T13:50:31.274Z,96.12
2018-12-10T13:53:00.400Z,96.07
2018-12-10T13:55:29.556Z,96.17
2018-12-10T13:57:58.657Z,96.09
2018-12-10T14:00:29.281Z,96.76
2018-12-10T14:03:02.585Z,96.83
2018-12-10T14:05:31.723Z,97.42
2018-12-10T14:08:00.834Z,97.36
2018-12-10T14:10:30.062Z,97.42
2018-12-10T14:12:59.151Z,98.06
2018-12-10T14:15:28.292Z,98.12
2018-12-10T14:17:57.425Z,98.48
2018-12-10T14:20:26.558Z,98.75
2018-12-10T14:22:55.645Z,99.49
2018-12-10T14:25:27.329Z,99.46
2018-12-10T14:27:56.455Z,99.67
2018-12-10T14:30:25.555Z,99.60
2018-12-10T14:32:54.694Z,99.38
2018-12-10T14:35:23.825Z,99.26
2018-12-10T14:37:52.936Z,99.80
2018-12-10T14:40:22.097Z,100.00
2018-12-10T14:42:53.978Z,100.00
2018-12-10T14:45:23.086Z,100.00
2018-12-10T14:47:53.829Z,100.00
2018-12-10T14:50:22.940Z,100.00
2018-12-10T14:52:52.433Z,100.00
2018-12-10T14:55:21.537Z,100.00
2018-12-10T14:57:50.672Z,100.00
2018-12-10T15:00:19.815Z,100.00
2018-12-10T15:02:48.951Z,100.00
2018-12-10T15:05:18.070Z,100.00
2018-12-10T15:07:47.209Z,100.00
2018-12-10T15:10:16.344Z,100.00
2018-12-10T15:12:45.453Z,100.00
2018-12-10T15:15:14.569Z,100.00
2018-12-10T15:17:43.694Z,100.00
2018-12-10T15:20:14.432Z,100.00
2018-12-10T15:22:43.608Z,100.00
2018-12-10T15:25:12.750Z,100.00
2018-12-10T15:27:41.874Z,100.00
2018-12-10T15:30:12.624Z,100.00
2018-12-10T15:32:41.727Z,100.00
2018-12-10T15:35:10.850Z,100.00
2018-12-10T15:37:39.967Z,100.00
2018-12-10T15:40:09.156Z,100.00
2018-12-10T15:42:38.373Z,100.00
2018-12-10T15:45:09.890Z,100.00
2018-12-10T15:47:39.021Z,100.00
2018-12-10T15:50:08.154Z,100.00
2018-12-10T15:52:37.254Z,100.00
2018-12-10T15:55:06.520Z,100.00
2018-12-10T15:57:35.663Z,100.00
2018-12-10T16:00:05.141Z,100.00
2018-12-10T16:02:34.277Z,100.00
2018-12-10T16:05:03.369Z,100.00
2018-12-10T16:07:32.511Z,100.00
2018-12-10T16:10:01.677Z,100.00
2018-12-10T16:12:31.924Z,100.00
2018-12-10T16:15:01.049Z,100.00
2018-12-10T16:17:30.193Z,100.00
2018-12-10T16:19:59.305Z,100.00
2018-12-10T16:22:28.432Z,100.00
2018-12-10T16:24:57.578Z,100.00
2018-12-10T16:27:26.819Z,100.00
2018-12-10T16:29:55.973Z,100.00
2018-12-10T16:32:25.102Z,100.00
2018-12-10T16:34:54.215Z,100.00
2018-12-10T16:37:23.320Z,100.00
2018-12-10T16:39:52.427Z,100.00
2018-12-10T16:42:21.541Z,100.00
2018-12-10T16:44:50.649Z,100.00
2018-12-10T16:47:19.845Z,100.00
2018-12-10T16:49:48.977Z,100.00
2018-12-10T16:52:19.088Z,100.00
2018-12-10T16:54:48.218Z,100.00
2018-12-10T16:57:17.378Z,100.00
2018-12-10T16:59:46.492Z,100.00
2018-12-10T17:02:15.609Z,100.00
2018-12-10T17:04:44.704Z,100.00
2018-12-10T17:07:13.863Z,100.00
2018-12-10T17:09:43.270Z,100.00
2018-12-10T17:12:12.509Z,100.00
2018-12-10T17:15:12.424Z,100.00
2018-12-10T17:17:41.723Z,100.00
2018-12-10T17:20:10.864Z,100.00
2018-12-10T17:22:39.995Z,100.00
2018-12-10T17:25:09.291Z,100.00
2018-12-10T17:27:38.393Z,100.00
2018-12-10T17:30:08.058Z,100.00
2018-12-10T17:32:37.172Z,100.00
2018-12-10T17:35:06.970Z,100.00
2018-12-10T17:37:36.122Z,100.00
2018-12-10T17:40:05.300Z,100.00
2018-12-10T17:42:34.429Z,100.00
2018-12-10T17:45:03.586Z,100.00
2018-12-10T17:47:32.713Z,100.00
2018-12-10T17:50:02.222Z,100.00
2018-12-10T17:52:31.340Z,100.00
2018-12-10T17:55:00.505Z,100.00
2018-12-10T17:57:29.675Z,100.00
2018-12-10T17:59:58.797Z,100.00
2018-12-10T18:02:27.930Z,100.00
2018-12-10T18:04:57.082Z,100.00
2018-12-10T18:07:26.207Z,100.00
2018-12-10T18:09:55.431Z,100.00
2018-12-10T18:12:24.560Z,100.00
2018-12-10T18:14:53.712Z,100.00
2018-12-10T18:17:22.868Z,100.00
2018-12-10T18:19:56.142Z,100.00
2018-12-10T18:22:25.844Z,100.00
2018-12-10T18:24:55.931Z,100.00
2018-12-10T18:27:26.563Z,100.00
2018-12-10T18:29:55.754Z,100.00
2018-12-10T18:32:25.382Z,100.00
2018-12-10T18:34:55.332Z,100.00
2018-12-10T18:37:28.802Z,100.00
2018-12-10T18:39:58.049Z,100.00
2018-12-10T18:42:27.569Z,100.00
2018-12-10T18:44:57.169Z,100.00
2018-12-10T18:47:26.320Z,100.00
2018-12-10T18:49:55.459Z,100.00
2018-12-10T18:52:24.609Z,100.00
2018-12-10T18:54:53.742Z,100.00
2018-12-10T18:57:22.892Z,100.00
2018-12-10T18:59:52.033Z,100.00
2018-12-10T19:02:21.184Z,100.00
2018-12-10T19:04:50.301Z,100.00
2018-12-10T19:07:19.385Z,100.00
2018-12-10T19:09:48.499Z,100.00
2018-12-10T19:12:17.663Z,99.23
2018-12-10T19:14:46.846Z,99.50
2018-12-10T19:17:16.010Z,98.89
2018-12-10T19:19:45.257Z,98.12
2018-12-10T19:22:14.347Z,98.28
2018-12-10T19:24:43.477Z,98.22
2018-12-10T19:27:12.566Z,97.28
2018-12-10T19:29:41.700Z,97.47
2018-12-10T19:32:10.853Z,96.87
2018-12-10T19:34:40.035Z,96.63
2018-12-10T19:37:09.120Z,95.99
2018-12-10T19:39:38.294Z,95.66
2018-12-10T19:42:07.415Z,95.64
2018-12-10T19:44:36.559Z,95.75
2018-12-10T19:47:07.574Z,95.65
2018-12-10T19:49:37.014Z,95.62
2018-12-10T19:52:06.123Z,95.38
2018-12-10T19:54:35.286Z,95.23
2018-12-10T19:57:04.762Z,95.04
2018-12-10T19:59:33.873Z,94.64
2018-12-10T20:02:03.000Z,94.67
2018-12-10T20:04:32.153Z,94.22
2018-12-10T20:07:06.179Z,94.54
2018-12-10T20:09:35.988Z,94.16
2018-12-10T20:12:05.152Z,94.70
2018-12-10T20:14:34.307Z,94.57
2018-12-10T20:17:03.469Z,94.99
2018-12-10T20:19:32.577Z,95.43
2018-12-10T20:22:01.770Z,94.75
2018-12-10T20:24:30.983Z,95.04
2018-12-10T20:27:00.174Z,94.67
2018-12-10T20:29:29.312Z,94.78
2018-12-10T20:31:58.425Z,94.54
2018-12-10T20:34:27.538Z,94.78
2018-12-10T20:36:56.645Z,93.36
2018-12-10T20:39:25.770Z,92.31
2018-12-10T20:41:54.878Z,93.08
2018-12-10T20:44:23.981Z,93.04
2018-12-10T20:46:53.070Z,92.32
2018-12-10T20:49:22.232Z,92.49
2018-12-10T20:51:51.336Z,92.42
2018-12-10T20:54:20.457Z,91.90
2018-12-10T20:56:49.577Z,92.26
2018-12-10T20:59:18.673Z,91.56
2018-12-10T21:01:47.788Z,91.57
2018-12-10T21:04:16.905Z,91.78
2018-12-10T21:06:46.038Z,91.85
2018-12-10T21:09:15.190Z,92.42
2018-12-10T21:11:44.290Z,91.80
2018-12-10T21:14:13.445Z,91.23
2018-12-10T21:16:42.550Z,92.29
2018-12-10T21:19:11.668Z,93.02
2018-12-10T21:21:40.744Z,92.54
2018-12-10T21:24:09.859Z,92.47
2018-12-10T21:26:38.938Z,92.13
2018-12-10T21:29:08.008Z,91.79
2018-12-10T21:31:37.120Z,92.45
2018-12-10T21:34:06.259Z,92.65
2018-12-10T21:36:35.368Z,92.42
2018-12-10T21:39:05.565Z,91.64
2018-12-10T21:41:34.653Z,92.10
2018-12-10T21:44:03.948Z,91.01
2018-12-10T21:46:33.193Z,90.49
2018-12-10T21:49:02.324Z,90.38
2018-12-10T21:51:31.447Z,90.69
2018-12-10T21:54:00.567Z,91.32
2018-12-10T21:56:29.696Z,90.75
2018-12-10T21:58:58.823Z,91.07
2018-12-10T22:01:27.912Z,91.48
2018-12-10T22:03:57.063Z,92.11
2018-12-10T22:06:26.173Z,93.00
2018-12-10T22:08:55.297Z,94.26
2018-12-10T22:11:24.418Z,94.07
2018-12-10T22:13:53.522Z,94.81
2018-12-10T22:16:22.596Z,94.08
2018-12-10T22:19:06.124Z,94.76
2018-12-10T22:21:35.231Z,93.45
2018-12-10T22:24:04.310Z,92.72
2018-12-10T22:26:33.408Z,93.26
2018-12-10T22:29:02.508Z,93.00
2018-12-10T22:31:31.644Z,93.13
2018-12-10T22:34:01.578Z,93.46
2018-12-10T22:36:30.684Z,92.47
2018-12-10T22:38:59.775Z,92.49
2018-12-10T22:41:28.898Z,93.14
2018-12-10T22:43:58.140Z,93.51
2018-12-10T22:46:27.240Z,93.46
2018-12-10T22:48:56.410Z,93.93
2018-12-10T22:51:25.517Z,93.36
2018-12-10T22:53:54.605Z,91.60
2018-12-10T22:56:23.689Z,91.87
2018-12-10T22:58:52.810Z,91.41
2018-12-10T23:01:21.897Z,90.33
2018-12-10T23:03:51.013Z,90.19
2018-12-10T23:06:20.133Z,89.55
2018-12-10T23:08:49.234Z,89.59
2018-12-10T23:11:18.388Z,89.88
2018-12-10T23:13:47.518Z,91.89
2018-12-10T23:16:16.616Z,88.31
2018-12-10T23:18:45.713Z,88.25
2018-12-10T23:21:14.804Z,87.29
2018-12-10T23:23:43.896Z,86.98
2018-12-10T23:26:13.001Z,86.52
2018-12-10T23:28:42.122Z,87.25
2018-12-10T23:31:11.226Z,86.50
2018-12-10T23:33:40.294Z,87.68
2018-12-10T23:36:09.449Z,86.99
2018-12-10T23:38:38.565Z,86.86
2018-12-10T23:41:07.676Z,86.60
2018-12-10T23:43:36.803Z,85.11
2018-12-10T23:46:05.897Z,84.94
2018-12-10T23:48:35.010Z,86.33
2018-12-10T23:51:04.117Z,85.72
2018-12-10T23:53:33.185Z,87.71
2018-12-10T23:56:02.294Z,86.86
2018-12-10T23:58:31.407Z,89.06
